sensor_id;sensor_type;location;lat;lon;timestamp;P1;durP1;ratioP1;P2;durP2;ratioP2
59972;SDS011;55298;-36.624;-64.282;2023-08-31T00:00:53;6.85;;;3.97;;
59972;SDS011;55298;-36.624;-64.282;2023-08-31T00:03:22;10.70;;;3.95;;
59972;SDS011;55298;-36.624;-64.282;2023-08-31T00:05:49;10.05;;;4.93;;
59972;SDS011;55298;-36.624;-64.282;2023-08-31T00:08:17;13.02;;;4.72;;
59972;SDS011;55298;-36.624;-64.282;2023-08-31T00:10:58;9.25;;;4.07;;
59972;SDS011;55298;-36.624;-64.282;2023-08-31T00:13:27;9.05;;;4.65;;
59972;SDS011;55298;-36.624;-64.282;2023-08-31T00:15:55;12.98;;;7.10;;
59972;SDS011;55298;-36.624;-64.282;2023-08-31T00:18:24;13.43;;;5.38;;
59972;SDS011;55298;-36.624;-64.282;2023-08-31T00:20:52;12.43;;;5.20;;
59972;SDS011;55298;-36.624;-64.282;2023-08-31T00:23:21;9.70;;;4.75;;
59972;SDS011;55298;-36.624;-64.282;2023-08-31T00:25:49;13.13;;;4.93;;
59972;SDS011;55298;-36.624;-64.282;2023-08-31T00:28:18;16.92;;;5.72;;
59972;SDS011;55298;-36.624;-64.282;2023-08-31T00:30:46;12.95;;;5.55;;
59972;SDS011;55298;-36.624;-64.282;2023-08-31T00:33:14;12.65;;;6.10;;
59972;SDS011;55298;-36.624;-64.282;2023-08-31T00:35:43;12.07;;;5.57;;
59972;SDS011;55298;-36.624;-64.282;2023-08-31T00:38:12;13.82;;;6.35;;
59972;SDS011;55298;-36.624;-64.282;2023-08-31T00:40:40;20.05;;;6.25;;
59972;SDS011;55298;-36.624;-64.282;2023-08-31T00:43:13;15.98;;;6.45;;
59972;SDS011;55298;-36.624;-64.282;2023-08-31T00:45:41;13.93;;;5.90;;
59972;SDS011;55298;-36.624;-64.282;2023-08-31T00:48:11;17.67;;;6.72;;
59972;SDS011;55298;-36.624;-64.282;2023-08-31T00:50:41;13.85;;;7.30;;
59972;SDS011;55298;-36.624;-64.282;2023-08-31T00:53:08;11.48;;;6.60;;
59972;SDS011;55298;-36.624;-64.282;2023-08-31T00:55:36;12.45;;;5.45;;
59972;SDS011;55298;-36.624;-64.282;2023-08-31T00:58:06;15.10;;;6.63;;
59972;SDS011;55298;-36.624;-64.282;2023-08-31T01:00:49;12.82;;;6.30;;
59972;SDS011;55298;-36.624;-64.282;2023-08-31T01:06:35;7.65;;;3.70;;
59972;SDS011;55298;-36.624;-64.282;2023-08-31T01:09:19;5.40;;;3.50;;
59972;SDS011;55298;-36.624;-64.282;2023-08-31T01:12:09;4.88;;;4.00;;
59972;SDS011;55298;-36.624;-64.282;2023-08-31T01:14:50;6.25;;;3.42;;
59972;SDS011;55298;-36.624;-64.282;2023-08-31T01:17:25;4.90;;;3.42;;
59972;SDS011;55298;-36.624;-64.282;2023-08-31T01:19:58;4.47;;;2.97;;
59972;SDS011;55298;-36.624;-64.282;2023-08-31T01:22:30;3.92;;;3.25;;
59972;SDS011;55298;-36.624;-64.282;2023-08-31T01:25:08;4.22;;;2.80;;
59972;SDS011;55298;-36.624;-64.282;2023-08-31T01:27:37;5.13;;;3.72;;
59972;SDS011;55298;-36.624;-64.282;2023-08-31T01:30:07;4.22;;;3.35;;
59972;SDS011;55298;-36.624;-64.282;2023-08-31T01:32:35;7.25;;;3.83;;
59972;SDS011;55298;-36.624;-64.282;2023-08-31T01:35:04;8.38;;;3.70;;
59972;SDS011;55298;-36.624;-64.282;2023-08-31T01:37:36;4.20;;;3.40;;
59972;SDS011;55298;-36.624;-64.282;2023-08-31T01:40:23;5.03;;;3.20;;
59972;SDS011;55298;-36.624;-64.282;2023-08-31T01:43:01;13.55;;;3.63;;
59972;SDS011;55298;-36.624;-64.282;2023-08-31T01:45:32;3.83;;;3.45;;
59972;SDS011;55298;-36.624;-64.282;2023-08-31T01:48:04;3.30;;;3.00;;
59972;SDS011;55298;-36.624;-64.282;2023-08-31T01:50:32;3.20;;;2.90;;
59972;SDS011;55298;-36.624;-64.282;2023-08-31T01:52:59;5.68;;;3.58;;
59972;SDS011;55298;-36.624;-64.282;2023-08-31T01:55:27;5.60;;;2.58;;
59972;SDS011;55298;-36.624;-64.282;2023-08-31T01:57:57;3.80;;;2.97;;
59972;SDS011;55298;-36.624;-64.282;2023-08-31T02:00:26;2.78;;;2.67;;
59972;SDS011;55298;-36.624;-64.282;2023-08-31T02:02:54;4.18;;;2.95;;
59972;SDS011;55298;-36.624;-64.282;2023-08-31T02:05:22;13.95;;;4.40;;
59972;SDS011;55298;-36.624;-64.282;2023-08-31T02:07:49;3.42;;;2.78;;
59972;SDS011;55298;-36.624;-64.282;2023-08-31T02:10:17;3.03;;;2.83;;
59972;SDS011;55298;-36.624;-64.282;2023-08-31T02:12:45;3.85;;;3.10;;
59972;SDS011;55298;-36.624;-64.282;2023-08-31T02:15:12;5.10;;;3.08;;
59972;SDS011;55298;-36.624;-64.282;2023-08-31T02:17:40;7.53;;;3.50;;
59972;SDS011;55298;-36.624;-64.282;2023-08-31T02:20:09;4.80;;;3.22;;
59972;SDS011;55298;-36.624;-64.282;2023-08-31T02:22:37;5.07;;;3.92;;
59972;SDS011;55298;-36.624;-64.282;2023-08-31T02:25:06;4.72;;;4.03;;
59972;SDS011;55298;-36.624;-64.282;2023-08-31T02:27:42;8.65;;;4.55;;
59972;SDS011;55298;-36.624;-64.282;2023-08-31T02:30:16;10.18;;;5.45;;
59972;SDS011;55298;-36.624;-64.282;2023-08-31T02:32:47;8.15;;;5.38;;
59972;SDS011;55298;-36.624;-64.282;2023-08-31T02:35:14;9.00;;;5.95;;
59972;SDS011;55298;-36.624;-64.282;2023-08-31T02:37:42;8.15;;;4.97;;
59972;SDS011;55298;-36.624;-64.282;2023-08-31T02:40:10;8.77;;;4.63;;
59972;SDS011;55298;-36.624;-64.282;2023-08-31T02:42:38;8.75;;;4.60;;
59972;SDS011;55298;-36.624;-64.282;2023-08-31T02:45:06;6.35;;;4.22;;
59972;SDS011;55298;-36.624;-64.282;2023-08-31T02:47:34;6.15;;;4.53;;
59972;SDS011;55298;-36.624;-64.282;2023-08-31T02:50:02;8.70;;;3.97;;
59972;SDS011;55298;-36.624;-64.282;2023-08-31T02:52:31;6.43;;;4.03;;
59972;SDS011;55298;-36.624;-64.282;2023-08-31T02:54:59;4.72;;;3.72;;
59972;SDS011;55298;-36.624;-64.282;2023-08-31T02:57:27;4.07;;;3.20;;
59972;SDS011;55298;-36.624;-64.282;2023-08-31T02:59:54;4.50;;;4.10;;
59972;SDS011;55298;-36.624;-64.282;2023-08-31T03:02:22;9.75;;;3.88;;
59972;SDS011;55298;-36.624;-64.282;2023-08-31T03:04:50;6.50;;;3.90;;
59972;SDS011;55298;-36.624;-64.282;2023-08-31T03:07:18;6.95;;;4.00;;
59972;SDS011;55298;-36.624;-64.282;2023-08-31T03:09:48;6.60;;;4.18;;
59972;SDS011;55298;-36.624;-64.282;2023-08-31T03:12:16;12.00;;;4.45;;
59972;SDS011;55298;-36.624;-64.282;2023-08-31T03:14:44;8.60;;;4.35;;
59972;SDS011;55298;-36.624;-64.282;2023-08-31T03:17:11;24.30;;;10.13;;
59972;SDS011;55298;-36.624;-64.282;2023-08-31T03:19:40;9.65;;;5.20;;
59972;SDS011;55298;-36.624;-64.282;2023-08-31T03:22:08;8.23;;;4.68;;
59972;SDS011;55298;-36.624;-64.282;2023-08-31T03:24:36;10.20;;;4.95;;
59972;SDS011;55298;-36.624;-64.282;2023-08-31T03:27:04;7.80;;;5.00;;
59972;SDS011;55298;-36.624;-64.282;2023-08-31T03:29:32;8.90;;;5.07;;
59972;SDS011;55298;-36.624;-64.282;2023-08-31T03:32:00;7.13;;;4.72;;
59972;SDS011;55298;-36.624;-64.282;2023-08-31T03:34:29;8.05;;;5.13;;
59972;SDS011;55298;-36.624;-64.282;2023-08-31T03:36:58;7.47;;;4.60;;
59972;SDS011;55298;-36.624;-64.282;2023-08-31T03:39:27;7.47;;;4.45;;
59972;SDS011;55298;-36.624;-64.282;2023-08-31T03:41:54;7.15;;;4.47;;
59972;SDS011;55298;-36.624;-64.282;2023-08-31T03:44:22;4.68;;;4.10;;
59972;SDS011;55298;-36.624;-64.282;2023-08-31T03:46:50;6.28;;;4.10;;
59972;SDS011;55298;-36.624;-64.282;2023-08-31T03:49:19;4.93;;;3.80;;
59972;SDS011;55298;-36.624;-64.282;2023-08-31T03:51:47;7.25;;;3.97;;
59972;SDS011;55298;-36.624;-64.282;2023-08-31T03:54:15;6.55;;;3.65;;
59972;SDS011;55298;-36.624;-64.282;2023-08-31T03:56:43;4.15;;;3.22;;
59972;SDS011;55298;-36.624;-64.282;2023-08-31T03:59:10;4.82;;;3.35;;
59972;SDS011;55298;-36.624;-64.282;2023-08-31T04:01:39;4.28;;;3.75;;
59972;SDS011;55298;-36.624;-64.282;2023-08-31T04:04:06;6.82;;;3.50;;
59972;SDS011;55298;-36.624;-64.282;2023-08-31T04:06:34;4.00;;;3.60;;
59972;SDS011;55298;-36.624;-64.282;2023-08-31T04:09:02;4.40;;;3.45;;
59972;SDS011;55298;-36.624;-64.282;2023-08-31T04:11:33;4.30;;;3.67;;
59972;SDS011;55298;-36.624;-64.282;2023-08-31T04:14:01;7.50;;;3.75;;
59972;SDS011;55298;-36.624;-64.282;2023-08-31T04:16:28;8.93;;;3.45;;
59972;SDS011;55298;-36.624;-64.282;2023-08-31T04:18:56;9.88;;;3.80;;
59972;SDS011;55298;-36.624;-64.282;2023-08-31T04:21:24;10.35;;;4.00;;
59972;SDS011;55298;-36.624;-64.282;2023-08-31T04:23:52;8.45;;;3.90;;
59972;SDS011;55298;-36.624;-64.282;2023-08-31T04:26:19;5.70;;;4.18;;
59972;SDS011;55298;-36.624;-64.282;2023-08-31T04:28:47;4.43;;;3.58;;
59972;SDS011;55298;-36.624;-64.282;2023-08-31T04:31:15;6.07;;;3.83;;
59972;SDS011;55298;-36.624;-64.282;2023-08-31T04:33:43;5.53;;;4.15;;
59972;SDS011;55298;-36.624;-64.282;2023-08-31T04:36:12;11.95;;;4.45;;
59972;SDS011;55298;-36.624;-64.282;2023-08-31T04:38:40;10.85;;;4.97;;
59972;SDS011;55298;-36.624;-64.282;2023-08-31T04:41:14;4.28;;;3.88;;
59972;SDS011;55298;-36.624;-64.282;2023-08-31T04:43:43;5.55;;;4.30;;
59972;SDS011;55298;-36.624;-64.282;2023-08-31T04:46:13;6.68;;;4.40;;
59972;SDS011;55298;-36.624;-64.282;2023-08-31T04:48:41;4.28;;;3.97;;
59972;SDS011;55298;-36.624;-64.282;2023-08-31T04:51:09;7.55;;;4.10;;
59972;SDS011;55298;-36.624;-64.282;2023-08-31T04:54:05;4.20;;;3.78;;
59972;SDS011;55298;-36.624;-64.282;2023-08-31T04:56:33;5.40;;;4.13;;
59972;SDS011;55298;-36.624;-64.282;2023-08-31T04:59:01;3.90;;;3.47;;
59972;SDS011;55298;-36.624;-64.282;2023-08-31T05:01:29;6.13;;;3.80;;
59972;SDS011;55298;-36.624;-64.282;2023-08-31T05:03:57;3.90;;;3.60;;
59972;SDS011;55298;-36.624;-64.282;2023-08-31T05:06:25;3.50;;;3.30;;
59972;SDS011;55298;-36.624;-64.282;2023-08-31T05:08:55;3.90;;;3.15;;
59972;SDS011;55298;-36.624;-64.282;2023-08-31T05:11:23;5.65;;;3.90;;
59972;SDS011;55298;-36.624;-64.282;2023-08-31T05:13:50;9.95;;;3.95;;
59972;SDS011;55298;-36.624;-64.282;2023-08-31T05:16:18;5.85;;;4.47;;
59972;SDS011;55298;-36.624;-64.282;2023-08-31T05:18:46;5.90;;;4.15;;
59972;SDS011;55298;-36.624;-64.282;2023-08-31T05:21:16;3.85;;;3.47;;
59972;SDS011;55298;-36.624;-64.282;2023-08-31T05:23:43;3.58;;;3.28;;
59972;SDS011;55298;-36.624;-64.282;2023-08-31T05:26:11;4.25;;;3.95;;
59972;SDS011;55298;-36.624;-64.282;2023-08-31T05:28:40;5.40;;;3.65;;
59972;SDS011;55298;-36.624;-64.282;2023-08-31T05:31:09;3.63;;;3.30;;
59972;SDS011;55298;-36.624;-64.282;2023-08-31T05:33:36;3.78;;;3.53;;
59972;SDS011;55298;-36.624;-64.282;2023-08-31T05:36:04;8.43;;;3.85;;
59972;SDS011;55298;-36.624;-64.282;2023-08-31T05:38:32;3.58;;;3.28;;
59972;SDS011;55298;-36.624;-64.282;2023-08-31T05:41:03;3.38;;;3.00;;
59972;SDS011;55298;-36.624;-64.282;2023-08-31T05:43:32;3.55;;;3.35;;
59972;SDS011;55298;-36.624;-64.282;2023-08-31T05:46:01;3.30;;;3.10;;
59972;SDS011;55298;-36.624;-64.282;2023-08-31T05:48:28;3.47;;;3.28;;
59972;SDS011;55298;-36.624;-64.282;2023-08-31T05:50:57;3.50;;;3.20;;
59972;SDS011;55298;-36.624;-64.282;2023-08-31T05:53:24;3.58;;;3.47;;
59972;SDS011;55298;-36.624;-64.282;2023-08-31T05:55:54;3.53;;;3.33;;
59972;SDS011;55298;-36.624;-64.282;2023-08-31T05:58:30;3.30;;;3.10;;
59972;SDS011;55298;-36.624;-64.282;2023-08-31T06:00:59;3.15;;;2.97;;
59972;SDS011;55298;-36.624;-64.282;2023-08-31T06:03:28;3.10;;;3.00;;
59972;SDS011;55298;-36.624;-64.282;2023-08-31T06:05:57;3.50;;;3.40;;
59972;SDS011;55298;-36.624;-64.282;2023-08-31T06:08:25;3.60;;;3.40;;
59972;SDS011;55298;-36.624;-64.282;2023-08-31T06:10:53;3.30;;;3.00;;
59972;SDS011;55298;-36.624;-64.282;2023-08-31T06:13:21;5.18;;;3.33;;
59972;SDS011;55298;-36.624;-64.282;2023-08-31T06:15:48;3.65;;;3.45;;
59972;SDS011;55298;-36.624;-64.282;2023-08-31T06:18:16;3.63;;;3.17;;
59972;SDS011;55298;-36.624;-64.282;2023-08-31T06:20:44;4.05;;;3.45;;
59972;SDS011;55298;-36.624;-64.282;2023-08-31T06:23:13;3.33;;;3.22;;
59972;SDS011;55298;-36.624;-64.282;2023-08-31T06:25:42;3.28;;;3.08;;
59972;SDS011;55298;-36.624;-64.282;2023-08-31T06:28:11;3.83;;;3.40;;
59972;SDS011;55298;-36.624;-64.282;2023-08-31T06:30:40;3.72;;;3.53;;
59972;SDS011;55298;-36.624;-64.282;2023-08-31T06:33:14;3.72;;;3.42;;
59972;SDS011;55298;-36.624;-64.282;2023-08-31T06:35:45;3.55;;;3.40;;
59972;SDS011;55298;-36.624;-64.282;2023-08-31T06:38:18;3.67;;;3.47;;
59972;SDS011;55298;-36.624;-64.282;2023-08-31T06:40:46;3.58;;;3.33;;
59972;SDS011;55298;-36.624;-64.282;2023-08-31T06:43:14;3.80;;;3.55;;
59972;SDS011;55298;-36.624;-64.282;2023-08-31T06:45:41;3.95;;;3.70;;
59972;SDS011;55298;-36.624;-64.282;2023-08-31T06:48:09;3.85;;;3.55;;
59972;SDS011;55298;-36.624;-64.282;2023-08-31T06:50:37;3.42;;;3.33;;
59972;SDS011;55298;-36.624;-64.282;2023-08-31T06:53:04;4.32;;;3.53;;
59972;SDS011;55298;-36.624;-64.282;2023-08-31T06:55:32;3.75;;;3.55;;
59972;SDS011;55298;-36.624;-64.282;2023-08-31T06:58:01;3.88;;;3.65;;
59972;SDS011;55298;-36.624;-64.282;2023-08-31T07:00:30;4.28;;;3.70;;
59972;SDS011;55298;-36.624;-64.282;2023-08-31T07:02:58;3.65;;;3.40;;
59972;SDS011;55298;-36.624;-64.282;2023-08-31T07:05:26;4.43;;;4.00;;
59972;SDS011;55298;-36.624;-64.282;2023-08-31T07:07:55;3.67;;;3.45;;
59972;SDS011;55298;-36.624;-64.282;2023-08-31T07:10:23;3.85;;;3.70;;
59972;SDS011;55298;-36.624;-64.282;2023-08-31T07:12:51;3.45;;;3.30;;
59972;SDS011;55298;-36.624;-64.282;2023-08-31T07:15:19;4.28;;;4.00;;
59972;SDS011;55298;-36.624;-64.282;2023-08-31T07:17:47;3.60;;;3.35;;
59972;SDS011;55298;-36.624;-64.282;2023-08-31T07:20:15;4.22;;;3.92;;
59972;SDS011;55298;-36.624;-64.282;2023-08-31T07:22:43;5.07;;;3.90;;
59972;SDS011;55298;-36.624;-64.282;2023-08-31T07:25:10;3.92;;;3.70;;
59972;SDS011;55298;-36.624;-64.282;2023-08-31T07:27:38;4.00;;;3.78;;
59972;SDS011;55298;-36.624;-64.282;2023-08-31T07:30:06;4.38;;;4.07;;
59972;SDS011;55298;-36.624;-64.282;2023-08-31T07:32:33;4.32;;;4.07;;
59972;SDS011;55298;-36.624;-64.282;2023-08-31T07:35:01;4.25;;;3.97;;
59972;SDS011;55298;-36.624;-64.282;2023-08-31T07:37:30;4.18;;;3.97;;
59972;SDS011;55298;-36.624;-64.282;2023-08-31T07:39:58;6.38;;;3.95;;
59972;SDS011;55298;-36.624;-64.282;2023-08-31T07:42:25;4.35;;;4.05;;
59972;SDS011;55298;-36.624;-64.282;2023-08-31T07:44:53;4.45;;;4.00;;
59972;SDS011;55298;-36.624;-64.282;2023-08-31T07:47:21;5.07;;;4.70;;
59972;SDS011;55298;-36.624;-64.282;2023-08-31T07:49:49;6.03;;;4.65;;
59972;SDS011;55298;-36.624;-64.282;2023-08-31T07:52:17;4.53;;;4.13;;
59972;SDS011;55298;-36.624;-64.282;2023-08-31T07:54:45;4.82;;;4.45;;
59972;SDS011;55298;-36.624;-64.282;2023-08-31T07:57:14;4.32;;;4.10;;
59972;SDS011;55298;-36.624;-64.282;2023-08-31T07:59:41;4.55;;;4.35;;
59972;SDS011;55298;-36.624;-64.282;2023-08-31T08:02:09;3.95;;;3.65;;
59972;SDS011;55298;-36.624;-64.282;2023-08-31T08:04:37;4.38;;;3.97;;
59972;SDS011;55298;-36.624;-64.282;2023-08-31T08:07:04;4.90;;;4.50;;
59972;SDS011;55298;-36.624;-64.282;2023-08-31T08:09:32;4.70;;;4.30;;
59972;SDS011;55298;-36.624;-64.282;2023-08-31T08:12:00;4.35;;;3.95;;
59972;SDS011;55298;-36.624;-64.282;2023-08-31T08:14:29;4.43;;;4.10;;
59972;SDS011;55298;-36.624;-64.282;2023-08-31T08:16:56;4.20;;;3.88;;
59972;SDS011;55298;-36.624;-64.282;2023-08-31T08:19:24;4.07;;;3.83;;
59972;SDS011;55298;-36.624;-64.282;2023-08-31T08:21:52;4.75;;;4.45;;
59972;SDS011;55298;-36.624;-64.282;2023-08-31T08:24:20;4.15;;;3.83;;
59972;SDS011;55298;-36.624;-64.282;2023-08-31T08:26:48;4.68;;;4.38;;
59972;SDS011;55298;-36.624;-64.282;2023-08-31T08:29:16;8.02;;;4.38;;
59972;SDS011;55298;-36.624;-64.282;2023-08-31T08:31:43;4.50;;;4.10;;
59972;SDS011;55298;-36.624;-64.282;2023-08-31T08:34:11;4.38;;;4.18;;
59972;SDS011;55298;-36.624;-64.282;2023-08-31T08:36:39;4.55;;;4.30;;
59972;SDS011;55298;-36.624;-64.282;2023-08-31T08:39:06;5.30;;;4.65;;
59972;SDS011;55298;-36.624;-64.282;2023-08-31T08:41:34;6.03;;;4.25;;
59972;SDS011;55298;-36.624;-64.282;2023-08-31T08:44:03;4.93;;;4.50;;
59972;SDS011;55298;-36.624;-64.282;2023-08-31T08:46:33;4.18;;;3.88;;
59972;SDS011;55298;-36.624;-64.282;2023-08-31T08:49:01;4.55;;;4.25;;
59972;SDS011;55298;-36.624;-64.282;2023-08-31T08:51:31;4.18;;;3.88;;
59972;SDS011;55298;-36.624;-64.282;2023-08-31T08:53:59;3.88;;;3.58;;
59972;SDS011;55298;-36.624;-64.282;2023-08-31T08:56:28;3.72;;;3.53;;
59972;SDS011;55298;-36.624;-64.282;2023-08-31T08:58:56;23.05;;;6.18;;
59972;SDS011;55298;-36.624;-64.282;2023-08-31T09:01:24;4.95;;;4.35;;
59972;SDS011;55298;-36.624;-64.282;2023-08-31T09:03:52;4.43;;;4.00;;
59972;SDS011;55298;-36.624;-64.282;2023-08-31T09:06:20;4.85;;;4.45;;
59972;SDS011;55298;-36.624;-64.282;2023-08-31T09:08:56;5.28;;;4.72;;
59972;SDS011;55298;-36.624;-64.282;2023-08-31T09:11:24;4.38;;;4.05;;
59972;SDS011;55298;-36.624;-64.282;2023-08-31T09:13:52;4.07;;;3.85;;
59972;SDS011;55298;-36.624;-64.282;2023-08-31T09:16:30;4.47;;;4.03;;
59972;SDS011;55298;-36.624;-64.282;2023-08-31T09:18:58;4.82;;;4.53;;
59972;SDS011;55298;-36.624;-64.282;2023-08-31T09:24:06;4.45;;;4.20;;
59972;SDS011;55298;-36.624;-64.282;2023-08-31T09:26:37;5.80;;;4.50;;
59972;SDS011;55298;-36.624;-64.282;2023-08-31T09:29:06;5.63;;;5.00;;
59972;SDS011;55298;-36.624;-64.282;2023-08-31T09:31:34;4.82;;;4.40;;
59972;SDS011;55298;-36.624;-64.282;2023-08-31T09:34:02;4.10;;;3.90;;
59972;SDS011;55298;-36.624;-64.282;2023-08-31T09:36:30;4.00;;;3.80;;
59972;SDS011;55298;-36.624;-64.282;2023-08-31T09:38:59;4.47;;;4.07;;
59972;SDS011;55298;-36.624;-64.282;2023-08-31T09:41:27;4.40;;;4.13;;
59972;SDS011;55298;-36.624;-64.282;2023-08-31T09:43:55;4.65;;;4.35;;
59972;SDS011;55298;-36.624;-64.282;2023-08-31T09:46:22;4.50;;;4.10;;
59972;SDS011;55298;-36.624;-64.282;2023-08-31T09:48:52;4.50;;;4.10;;
59972;SDS011;55298;-36.624;-64.282;2023-08-31T09:51:20;4.50;;;4.18;;
59972;SDS011;55298;-36.624;-64.282;2023-08-31T09:53:51;4.30;;;3.97;;
59972;SDS011;55298;-36.624;-64.282;2023-08-31T09:56:23;4.50;;;4.20;;
59972;SDS011;55298;-36.624;-64.282;2023-08-31T09:58:53;4.45;;;4.05;;
59972;SDS011;55298;-36.624;-64.282;2023-08-31T10:01:21;7.97;;;4.53;;
59972;SDS011;55298;-36.624;-64.282;2023-08-31T10:03:48;4.70;;;4.30;;
59972;SDS011;55298;-36.624;-64.282;2023-08-31T10:06:17;4.88;;;3.95;;
59972;SDS011;55298;-36.624;-64.282;2023-08-31T10:08:47;6.13;;;4.47;;
59972;SDS011;55298;-36.624;-64.282;2023-08-31T10:11:15;4.53;;;4.22;;
59972;SDS011;55298;-36.624;-64.282;2023-08-31T10:13:43;4.00;;;3.80;;
59972;SDS011;55298;-36.624;-64.282;2023-08-31T10:16:13;6.55;;;4.50;;
59972;SDS011;55298;-36.624;-64.282;2023-08-31T10:18:42;4.90;;;4.40;;
59972;SDS011;55298;-36.624;-64.282;2023-08-31T10:21:10;5.22;;;4.55;;
59972;SDS011;55298;-36.624;-64.282;2023-08-31T10:23:46;5.68;;;5.18;;
59972;SDS011;55298;-36.624;-64.282;2023-08-31T10:31:17;17.27;;;8.45;;
59972;SDS011;55298;-36.624;-64.282;2023-08-31T10:34:11;6.28;;;4.40;;
59972;SDS011;55298;-36.624;-64.282;2023-08-31T10:36:40;8.50;;;4.75;;
59972;SDS011;55298;-36.624;-64.282;2023-08-31T10:39:13;12.43;;;8.00;;
59972;SDS011;55298;-36.624;-64.282;2023-08-31T10:41:53;13.27;;;7.68;;
59972;SDS011;55298;-36.624;-64.282;2023-08-31T10:44:22;11.35;;;6.50;;
59972;SDS011;55298;-36.624;-64.282;2023-08-31T10:46:52;10.18;;;5.57;;
59972;SDS011;55298;-36.624;-64.282;2023-08-31T10:49:21;8.30;;;7.47;;
59972;SDS011;55298;-36.624;-64.282;2023-08-31T10:52:14;9.73;;;5.68;;
59972;SDS011;55298;-36.624;-64.282;2023-08-31T10:54:46;6.78;;;4.30;;
59972;SDS011;55298;-36.624;-64.282;2023-08-31T10:57:29;7.57;;;4.60;;
59972;SDS011;55298;-36.624;-64.282;2023-08-31T10:59:57;9.18;;;5.47;;
59972;SDS011;55298;-36.624;-64.282;2023-08-31T11:02:58;8.27;;;5.40;;
59972;SDS011;55298;-36.624;-64.282;2023-08-31T11:05:16;6.50;;;4.32;;
59972;SDS011;55298;-36.624;-64.282;2023-08-31T11:07:46;11.07;;;6.97;;
59972;SDS011;55298;-36.624;-64.282;2023-08-31T11:12:47;10.50;;;5.25;;
59972;SDS011;55298;-36.624;-64.282;2023-08-31T11:15:21;9.80;;;6.18;;
59972;SDS011;55298;-36.624;-64.282;2023-08-31T11:17:52;11.02;;;5.85;;
59972;SDS011;55298;-36.624;-64.282;2023-08-31T11:20:23;6.53;;;5.43;;
59972;SDS011;55298;-36.624;-64.282;2023-08-31T11:22:58;15.23;;;8.48;;
59972;SDS011;55298;-36.624;-64.282;2023-08-31T11:25:27;11.65;;;6.55;;
59972;SDS011;55298;-36.624;-64.282;2023-08-31T11:28:00;9.57;;;5.72;;
59972;SDS011;55298;-36.624;-64.282;2023-08-31T11:30:31;13.00;;;7.50;;
59972;SDS011;55298;-36.624;-64.282;2023-08-31T11:33:03;9.90;;;6.47;;
59972;SDS011;55298;-36.624;-64.282;2023-08-31T11:35:33;21.52;;;19.08;;
59972;SDS011;55298;-36.624;-64.282;2023-08-31T11:38:07;16.35;;;8.45;;
59972;SDS011;55298;-36.624;-64.282;2023-08-31T11:40:36;10.60;;;8.20;;
59972;SDS011;55298;-36.624;-64.282;2023-08-31T11:43:04;11.38;;;7.63;;
59972;SDS011;55298;-36.624;-64.282;2023-08-31T11:45:36;20.20;;;9.25;;
59972;SDS011;55298;-36.624;-64.282;2023-08-31T11:48:09;12.30;;;7.45;;
59972;SDS011;55298;-36.624;-64.282;2023-08-31T11:50:42;10.60;;;6.55;;
59972;SDS011;55298;-36.624;-64.282;2023-08-31T11:53:18;10.55;;;6.97;;
59972;SDS011;55298;-36.624;-64.282;2023-08-31T11:56:06;14.77;;;7.25;;
59972;SDS011;55298;-36.624;-64.282;2023-08-31T11:58:40;15.73;;;7.75;;
59972;SDS011;55298;-36.624;-64.282;2023-08-31T12:01:17;20.17;;;8.25;;
59972;SDS011;55298;-36.624;-64.282;2023-08-31T12:03:48;13.73;;;7.47;;
59972;SDS011;55298;-36.624;-64.282;2023-08-31T12:06:18;8.32;;;6.50;;
59972;SDS011;55298;-36.624;-64.282;2023-08-31T12:08:51;15.27;;;6.80;;
59972;SDS011;55298;-36.624;-64.282;2023-08-31T12:11:20;10.82;;;6.97;;
59972;SDS011;55298;-36.624;-64.282;2023-08-31T12:13:50;7.82;;;6.32;;
59972;SDS011;55298;-36.624;-64.282;2023-08-31T12:16:20;10.27;;;7.97;;
59972;SDS011;55298;-36.624;-64.282;2023-08-31T12:18:58;11.68;;;7.78;;
59972;SDS011;55298;-36.624;-64.282;2023-08-31T12:22:07;8.57;;;6.80;;
59972;SDS011;55298;-36.624;-64.282;2023-08-31T12:24:39;12.32;;;6.65;;
59972;SDS011;55298;-36.624;-64.282;2023-08-31T12:27:08;6.15;;;5.57;;
59972;SDS011;55298;-36.624;-64.282;2023-08-31T12:29:37;5.82;;;4.95;;
59972;SDS011;55298;-36.624;-64.282;2023-08-31T12:32:14;7.32;;;6.20;;
59972;SDS011;55298;-36.624;-64.282;2023-08-31T12:34:44;9.32;;;6.97;;
59972;SDS011;55298;-36.624;-64.282;2023-08-31T12:37:39;11.88;;;6.97;;
59972;SDS011;55298;-36.624;-64.282;2023-08-31T12:40:19;8.32;;;6.60;;
59972;SDS011;55298;-36.624;-64.282;2023-08-31T12:43:02;7.80;;;6.15;;
59972;SDS011;55298;-36.624;-64.282;2023-08-31T12:45:42;9.43;;;7.82;;
59972;SDS011;55298;-36.624;-64.282;2023-08-31T12:48:18;9.50;;;5.82;;
59972;SDS011;55298;-36.624;-64.282;2023-08-31T12:50:48;13.60;;;7.18;;
59972;SDS011;55298;-36.624;-64.282;2023-08-31T12:53:20;14.75;;;8.43;;
59972;SDS011;55298;-36.624;-64.282;2023-08-31T12:55:49;13.73;;;7.25;;
59972;SDS011;55298;-36.624;-64.282;2023-08-31T12:58:17;12.77;;;7.97;;
59972;SDS011;55298;-36.624;-64.282;2023-08-31T13:00:46;11.75;;;7.65;;
59972;SDS011;55298;-36.624;-64.282;2023-08-31T13:03:15;21.20;;;11.63;;
59972;SDS011;55298;-36.624;-64.282;2023-08-31T13:05:44;19.08;;;9.23;;
59972;SDS011;55298;-36.624;-64.282;2023-08-31T13:08:12;17.63;;;10.70;;
59972;SDS011;55298;-36.624;-64.282;2023-08-31T13:11:01;19.50;;;10.73;;
59972;SDS011;55298;-36.624;-64.282;2023-08-31T13:13:42;10.45;;;6.60;;
59972;SDS011;55298;-36.624;-64.282;2023-08-31T13:16:14;10.00;;;5.00;;
59972;SDS011;55298;-36.624;-64.282;2023-08-31T13:18:43;8.48;;;6.18;;
59972;SDS011;55298;-36.624;-64.282;2023-08-31T13:21:11;10.98;;;5.15;;
59972;SDS011;55298;-36.624;-64.282;2023-08-31T13:23:39;5.50;;;4.05;;
59972;SDS011;55298;-36.624;-64.282;2023-08-31T13:26:10;9.45;;;6.22;;
59972;SDS011;55298;-36.624;-64.282;2023-08-31T13:28:42;7.72;;;4.40;;
59972;SDS011;55298;-36.624;-64.282;2023-08-31T13:31:10;6.57;;;4.18;;
59972;SDS011;55298;-36.624;-64.282;2023-08-31T13:33:41;6.63;;;3.70;;
59972;SDS011;55298;-36.624;-64.282;2023-08-31T13:36:14;8.68;;;4.05;;
59972;SDS011;55298;-36.624;-64.282;2023-08-31T13:38:42;5.80;;;4.25;;
59972;SDS011;55298;-36.624;-64.282;2023-08-31T13:41:10;8.50;;;4.88;;
59972;SDS011;55298;-36.624;-64.282;2023-08-31T13:43:38;8.00;;;4.50;;
59972;SDS011;55298;-36.624;-64.282;2023-08-31T13:46:06;10.52;;;7.30;;
59972;SDS011;55298;-36.624;-64.282;2023-08-31T13:48:37;7.93;;;6.07;;
59972;SDS011;55298;-36.624;-64.282;2023-08-31T13:51:05;3.20;;;3.00;;
59972;SDS011;55298;-36.624;-64.282;2023-08-31T13:53:34;4.93;;;3.72;;
59972;SDS011;55298;-36.624;-64.282;2023-08-31T13:56:02;4.65;;;3.08;;
59972;SDS011;55298;-36.624;-64.282;2023-08-31T13:58:31;5.18;;;3.00;;
59972;SDS011;55298;-36.624;-64.282;2023-08-31T14:01:01;3.72;;;2.60;;
59972;SDS011;55298;-36.624;-64.282;2023-08-31T14:03:31;2.50;;;2.40;;
59972;SDS011;55298;-36.624;-64.282;2023-08-31T14:05:59;8.55;;;3.70;;
59972;SDS011;55298;-36.624;-64.282;2023-08-31T14:08:28;4.43;;;2.95;;
59972;SDS011;55298;-36.624;-64.282;2023-08-31T14:10:56;3.95;;;2.38;;
59972;SDS011;55298;-36.624;-64.282;2023-08-31T14:13:23;3.47;;;2.10;;
59972;SDS011;55298;-36.624;-64.282;2023-08-31T14:15:51;2.45;;;2.35;;
59972;SDS011;55298;-36.624;-64.282;2023-08-31T14:18:20;2.67;;;2.47;;
59972;SDS011;55298;-36.624;-64.282;2023-08-31T14:20:51;3.30;;;2.88;;
59972;SDS011;55298;-36.624;-64.282;2023-08-31T14:23:24;4.18;;;3.88;;
59972;SDS011;55298;-36.624;-64.282;2023-08-31T14:26:01;2.10;;;2.00;;
59972;SDS011;55298;-36.624;-64.282;2023-08-31T14:28:35;1.90;;;1.80;;
59972;SDS011;55298;-36.624;-64.282;2023-08-31T14:31:06;2.13;;;2.00;;
59972;SDS011;55298;-36.624;-64.282;2023-08-31T14:33:37;2.45;;;1.90;;
59972;SDS011;55298;-36.624;-64.282;2023-08-31T14:36:04;1.98;;;1.80;;